Wilson Heron — 9HJW9 — position and weather

sailwx.info

Track history (hours):
 
Tides and Currents Weather Stations Pressure Air Temp Water Temp Dewpoint Dewpoint Depression Visibility Wind Speed Wind Dir Waves Ship Positions

Wilson Heron

Last reported at 2018-Apr-21 08:37 UTC. Time now 2018-Apr-24 21:05 UTC.
Position N 54°23' E 000°31'.

Length 91 m; draft 5.9 m.

Type: Cargo ship. MMSI: 249075000.

Date/timePositionNaut miles runAvg speedWind from/ knotsBaromVisibWave heightAir tempDewpointWater temp
2018-Apr-21 08:37N 54°23' E 000°31'2 9.2
2018-Apr-21 08:26N 54°21' E 000°32'4 9.1
2018-Apr-21 08:00N 54°17' E 000°34'30 9.1
2018-Apr-21 04:39N 53°48' E 000°49'4 9.3
2018-Apr-21 04:15N 53°45' E 000°51'2 9.5
2018-Apr-21 04:00N 53°42' E 000°52'1410.3
2018-Apr-21 02:38N 53°29' E 001°01'210.7
2018-Apr-21 02:25N 53°27' E 001°02'510.2
2018-Apr-21 01:56N 53°23' E 001°06'5 9.6
2018-Apr-21 01:28N 53°19' E 001°09'4 9.2
2018-Apr-21 01:00N 53°16' E 001°15'4 8.6
2018-Apr-21 00:30N 53°13' E 001°20'4 8.6
2018-Apr-21 00:00N 53°11' E 001°26'4 8.5
2018-Apr-20 23:30N 53°09' E 001°33'4 8.6
2018-Apr-20 23:00N 53°07' E 001°39'4 8.6
2018-Apr-20 22:30N 53°05' E 001°45'4 8.6
2018-Apr-20 22:00N 53°03' E 001°52'4 8.1
2018-Apr-20 21:30N 53°02' E 001°58'4 8.1
2018-Apr-20 21:00N 53°01' E 002°05'4 8.8
2018-Apr-20 20:30N 52°59' E 002°12'5 8.9
2018-Apr-20 19:55N 52°55' E 002°17'410.8
2018-Apr-20 19:30N 52°51' E 002°20'612.0
2018-Apr-20 19:00N 52°46' E 002°25'612.2
2018-Apr-20 18:29N 52°40' E 002°29'612.1
2018-Apr-20 18:00N 52°35' E 002°33'612.0
2018-Apr-20 17:30N 52°30' E 002°38'611.6
2018-Apr-20 17:00N 52°24' E 002°42'3710.7
2018-Apr-20 13:34N 51°51' E 003°08'210.2
2018-Apr-20 13:24N 51°50' E 003°10'410.2
2018-Apr-20 13:00N 51°47' E 003°14'5 9.3
2018-Apr-20 12:30N 51°43' E 003°17'510.4
2018-Apr-20 12:00N 51°38' E 003°21'510.6
2018-Apr-20 11:30N 51°33' E 003°25'5 9.5
2018-Apr-20 11:00N 51°29' E 003°29'5 9.4
2018-Apr-20 10:30N 51°26' E 003°35'5 9.3
2018-Apr-20 10:00N 51°27' E 003°42'0 0.5
2018-Apr-20 09:31N 51°27' E 003°42'0 0.0
2018-Apr-20 08:57N 51°27' E 003°42'0 0.0
2018-Apr-20 08:30N 51°27' E 003°42'0 0.0
2018-Apr-20 08:00N 51°27' E 003°42'0 0.0
2018-Apr-20 07:30N 51°27' E 003°42'0 0.0
2018-Apr-20 06:57N 51°27' E 003°42'0 0.0
2018-Apr-20 06:30N 51°27' E 003°42'0 0.0
2018-Apr-20 05:58N 51°27' E 003°42'0 0.0
2018-Apr-20 05:30N 51°27' E 003°42'0 0.0
2018-Apr-20 05:00N 51°27' E 003°42'0 0.0
2018-Apr-20 04:31N 51°27' E 003°42'0 0.0
2018-Apr-20 03:57N 51°27' E 003°42'0 0.0
2018-Apr-20 03:30N 51°27' E 003°42'0 0.0
2018-Apr-20 03:00N 51°27' E 003°42'0 0.0
2018-Apr-20 02:27N 51°27' E 003°42'0 0.0
2018-Apr-20 02:00N 51°27' E 003°42'0 0.0
2018-Apr-20 01:31N 51°27' E 003°42'0 0.0
2018-Apr-20 01:01N 51°27' E 003°42'0 0.0
2018-Apr-20 00:30N 51°27' E 003°42'0 0.0
2018-Apr-20 00:00N 51°27' E 003°42'0 0.0
2018-Apr-19 23:30N 51°27' E 003°42'0 0.0
2018-Apr-19 23:01N 51°27' E 003°42'0 0.0
2018-Apr-19 22:30N 51°27' E 003°42'0 0.0
2018-Apr-19 22:00N 51°27' E 003°42'0 0.0
2018-Apr-19 21:30N 51°27' E 003°42'0 0.0
2018-Apr-19 20:57N 51°27' E 003°42'0 0.0
2018-Apr-19 20:30N 51°27' E 003°42'0 0.0
2018-Apr-19 20:00N 51°27' E 003°42'0 0.0
2018-Apr-19 19:24N 51°27' E 003°42'0 0.0
2018-Apr-19 19:00N 51°27' E 003°42'1 2.1
2018-Apr-19 18:30N 51°27' E 003°41'3 6.0
2018-Apr-19 18:00N 51°27' E 003°36'0 0.2
2018-Apr-19 17:25N 51°27' E 003°36'0 0.0
2018-Apr-19 16:55N 51°27' E 003°36'0 0.0
2018-Apr-19 16:28N 51°27' E 003°36'0 0.0
2018-Apr-19 15:58N 51°27' E 003°36'0 0.0
2018-Apr-19 15:28N 51°27' E 003°36'0 0.0
2018-Apr-19 14:52N 51°27' E 003°36'0 0.0
2018-Apr-19 14:25N 51°27' E 003°36'0 0.0
2018-Apr-19 13:58N 51°27' E 003°36'0 0.0
2018-Apr-19 13:25N 51°27' E 003°36'0 0.0
2018-Apr-19 12:55N 51°27' E 003°36'0 0.0
2018-Apr-19 12:22N 51°27' E 003°36'0 0.0
2018-Apr-19 11:58N 51°27' E 003°36'0 0.0
2018-Apr-19 11:25N 51°27' E 003°36'0 0.0
2018-Apr-19 10:55N 51°27' E 003°36'0 0.0
2018-Apr-19 10:25N 51°27' E 003°36'0 0.0
2018-Apr-19 09:49N 51°27' E 003°36'0 0.0
2018-Apr-19 09:19N 51°27' E 003°36'0 0.0
2018-Apr-19 08:55N 51°27' E 003°36'0 0.0
2018-Apr-19 08:25N 51°27' E 003°36'0 0.0
2018-Apr-19 07:58N 51°27' E 003°36'0 0.0
2018-Apr-19 07:28N 51°27' E 003°36'0 0.0
2018-Apr-19 06:58N 51°27' E 003°36'0 0.0
2018-Apr-19 06:28N 51°27' E 003°36'0 0.0
2018-Apr-19 05:58N 51°27' E 003°36'0 0.0
2018-Apr-19 05:25N 51°27' E 003°36'0 0.0
2018-Apr-19 04:58N 51°27' E 003°36'0 0.0
2018-Apr-19 04:28N 51°27' E 003°36'0 0.0
2018-Apr-19 03:55N 51°27' E 003°36'0 0.0
2018-Apr-19 03:28N 51°27' E 003°36'0 0.0
2018-Apr-19 02:58N 51°27' E 003°36'0 0.0
2018-Apr-19 02:28N 51°27' E 003°36'0 0.0
2018-Apr-19 01:58N 51°27' E 003°36'0 0.0
2018-Apr-19 01:13N 51°27' E 003°36'0 0.0
2018-Apr-19 00:55N 51°27' E 003°36'0 0.0
2018-Apr-19 00:28N 51°27' E 003°36'0 0.0
2018-Apr-18 23:58N 51°27' E 003°36'0 0.0
2018-Apr-18 23:28N 51°27' E 003°36'0 0.0
2018-Apr-18 22:55N 51°27' E 003°36'0 0.0
2018-Apr-18 22:28N 51°27' E 003°36'0 0.0
2018-Apr-18 21:55N 51°27' E 003°36'0 0.0
2018-Apr-18 21:28N 51°27' E 003°36'0 0.0
2018-Apr-18 20:58N 51°27' E 003°36'0 0.0
2018-Apr-18 20:28N 51°27' E 003°36'0 0.0
2018-Apr-18 19:58N 51°27' E 003°36'0 0.0
2018-Apr-18 19:25N 51°27' E 003°36'0 0.0
2018-Apr-18 18:58N 51°27' E 003°36'0 0.0
2018-Apr-18 18:28N 51°27' E 003°36'0 0.0
2018-Apr-18 17:55N 51°27' E 003°36'0 0.0
2018-Apr-18 17:25N 51°27' E 003°36'0 0.0
2018-Apr-18 16:58N 51°27' E 003°36'0 0.0
2018-Apr-18 16:28N 51°27' E 003°36'0 0.0
2018-Apr-18 15:58N 51°27' E 003°36'0 0.0
2018-Apr-18 15:28N 51°27' E 003°36'0 0.0
2018-Apr-18 14:58N 51°27' E 003°36'0 0.0
2018-Apr-18 14:28N 51°27' E 003°36'0 0.0
2018-Apr-18 13:58N 51°27' E 003°36'0 0.0
2018-Apr-18 13:28N 51°27' E 003°36'0 0.0
2018-Apr-18 12:58N 51°27' E 003°36'0 0.0
2018-Apr-18 12:28N 51°27' E 003°36'0 0.0
2018-Apr-18 11:58N 51°27' E 003°36'0 0.0
2018-Apr-18 11:28N 51°27' E 003°36'0 0.0
2018-Apr-18 10:58N 51°27' E 003°36'0 0.0
2018-Apr-18 10:28N 51°27' E 003°36'0 0.0
2018-Apr-18 09:58N 51°27' E 003°36'0 0.0
2018-Apr-18 09:28N 51°27' E 003°36'0 0.0
2018-Apr-18 08:58N 51°27' E 003°36'0 0.0
2018-Apr-18 08:28N 51°27' E 003°36'0 0.0
2018-Apr-18 07:58N 51°27' E 003°36'0 0.0
2018-Apr-18 07:28N 51°27' E 003°36'0 0.0
2018-Apr-18 06:58N 51°27' E 003°36'0 0.0
2018-Apr-18 06:25N 51°27' E 003°36'0 0.0
2018-Apr-18 05:58N 51°27' E 003°36'0 0.0
2018-Apr-18 05:28N 51°27' E 003°36'0 0.0
2018-Apr-18 04:58N 51°27' E 003°36'0 0.0
2018-Apr-18 04:28N 51°27' E 003°36'0 0.0
2018-Apr-18 03:58N 51°27' E 003°36'0 0.0
2018-Apr-18 03:28N 51°27' E 003°36'0 0.0
2018-Apr-18 02:58N 51°27' E 003°36'0 0.0
2018-Apr-18 02:28N 51°27' E 003°36'0 0.0
2018-Apr-18 01:58N 51°27' E 003°36'0 0.0
2018-Apr-18 01:28N 51°27' E 003°36'0 0.0
2018-Apr-18 01:00N 51°27' E 003°36'1 1.6
2018-Apr-18 00:30N 51°26' E 003°36'611.4
2018-Apr-18 00:00N 51°25' E 003°27'612.9
2018-Apr-17 23:30N 51°24' E 003°16'612.2
2018-Apr-17 23:00N 51°24' E 003°07'510.8
2018-Apr-17 22:30N 51°23' E 002°58'510.2
2018-Apr-17 22:00N 51°21' E 002°50'5 8.7
2018-Apr-17 21:29N 51°21' E 002°43'4 8.7
2018-Apr-17 21:00N 51°22' E 002°36'5 9.5
2018-Apr-17 20:30N 51°21' E 002°29'5 9.6
2018-Apr-17 20:00N 51°20' E 002°21'7 9.9
2018-Apr-17 19:19N 51°16' E 002°13'310.3
2018-Apr-17 18:59N 51°14' E 002°08'510.5
2018-Apr-17 18:31N 51°11' E 002°01'510.9
2018-Apr-17 18:01N 51°09' E 001°53'611.3
2018-Apr-17 17:30N 51°07' E 001°45'510.4
2018-Apr-17 17:00N 51°03' E 001°39'6411.8
2018-Apr-17 11:36N 50°23' E 000°21'112.9
2018-Apr-17 11:29N 50°22' E 000°19'613.2
2018-Apr-17 11:00N 50°21' E 000°10'713.7
2018-Apr-17 10:30N 50°19' W 000°01'714.1
2018-Apr-17 10:00N 50°17' W 000°12'714.5
2018-Apr-17 09:30N 50°15' W 000°22'714.9
2018-Apr-17 09:00N 50°13' W 000°33'714.7
2018-Apr-17 08:30N 50°11' W 000°45'714.7
2018-Apr-17 08:00N 50°09' W 000°56'714.5
2018-Apr-17 07:30N 50°07' W 001°06'714.4
2018-Apr-17 07:00N 50°05' W 001°17'713.6
2018-Apr-17 06:30N 50°03' W 001°27'612.5
2018-Apr-17 06:00N 50°02' W 001°37'611.5
2018-Apr-17 05:31N 50°00' W 001°45'510.6
2018-Apr-17 05:01N 49°59' W 001°53'5 9.7
2018-Apr-17 04:31N 49°58' W 002°01'5 8.9
2018-Apr-17 04:00N 49°56' W 002°07'4 8.3
2018-Apr-17 03:30N 49°55' W 002°14'5 7.8
2018-Apr-17 02:54N 49°54' W 002°21'3 7.6
2018-Apr-17 02:30N 49°53' W 002°25'13211.3
2018-Apr-16 14:48N 48°50' W 005°24'  
Track history (hours):
 
Tides and Currents Weather Stations Pressure Air Temp Water Temp Dewpoint Dewpoint Depression Visibility Wind Speed Wind Dir Waves Ship Positions

Wilson Heron

Last reported at 2018-Apr-21 08:37 UTC. Time now 2018-Apr-24 21:05 UTC.
Position N 54°23' E 000°31'.

Length 91 m; draft 5.9 m.

Type: Cargo ship. MMSI: 249075000.

Date/timePositionNaut miles runAvg speedWind from/ knotsBaromVisibWave heightAir tempDewpointWater temp
2018-Apr-21 08:37N 54°23' E 000°31'2 9.2
2018-Apr-21 08:26N 54°21' E 000°32'4 9.1
2018-Apr-21 08:00N 54°17' E 000°34'30 9.1
2018-Apr-21 04:39N 53°48' E 000°49'4 9.3
2018-Apr-21 04:15N 53°45' E 000°51'2 9.5
2018-Apr-21 04:00N 53°42' E 000°52'1410.3
2018-Apr-21 02:38N 53°29' E 001°01'210.7
2018-Apr-21 02:25N 53°27' E 001°02'510.2
2018-Apr-21 01:56N 53°23' E 001°06'5 9.6
2018-Apr-21 01:28N 53°19' E 001°09'4 9.2
2018-Apr-21 01:00N 53°16' E 001°15'4 8.6
2018-Apr-21 00:30N 53°13' E 001°20'4 8.6
2018-Apr-21 00:00N 53°11' E 001°26'4 8.5
2018-Apr-20 23:30N 53°09' E 001°33'4 8.6
2018-Apr-20 23:00N 53°07' E 001°39'4 8.6
2018-Apr-20 22:30N 53°05' E 001°45'4 8.6
2018-Apr-20 22:00N 53°03' E 001°52'4 8.1
2018-Apr-20 21:30N 53°02' E 001°58'4 8.1
2018-Apr-20 21:00N 53°01' E 002°05'4 8.8
2018-Apr-20 20:30N 52°59' E 002°12'5 8.9
2018-Apr-20 19:55N 52°55' E 002°17'410.8
2018-Apr-20 19:30N 52°51' E 002°20'612.0
2018-Apr-20 19:00N 52°46' E 002°25'612.2
2018-Apr-20 18:29N 52°40' E 002°29'612.1
2018-Apr-20 18:00N 52°35' E 002°33'612.0
2018-Apr-20 17:30N 52°30' E 002°38'611.6
2018-Apr-20 17:00N 52°24' E 002°42'3710.7
2018-Apr-20 13:34N 51°51' E 003°08'210.2
2018-Apr-20 13:24N 51°50' E 003°10'410.2
2018-Apr-20 13:00N 51°47' E 003°14'5 9.3
2018-Apr-20 12:30N 51°43' E 003°17'510.4
2018-Apr-20 12:00N 51°38' E 003°21'510.6
2018-Apr-20 11:30N 51°33' E 003°25'5 9.5
2018-Apr-20 11:00N 51°29' E 003°29'5 9.4
2018-Apr-20 10:30N 51°26' E 003°35'5 9.3
2018-Apr-20 10:00N 51°27' E 003°42'0 0.5
2018-Apr-20 09:31N 51°27' E 003°42'0 0.0
2018-Apr-20 08:57N 51°27' E 003°42'0 0.0
2018-Apr-20 08:30N 51°27' E 003°42'0 0.0
2018-Apr-20 08:00N 51°27' E 003°42'0 0.0
2018-Apr-20 07:30N 51°27' E 003°42'0 0.0
2018-Apr-20 06:57N 51°27' E 003°42'0 0.0
2018-Apr-20 06:30N 51°27' E 003°42'0 0.0
2018-Apr-20 05:58N 51°27' E 003°42'0 0.0
2018-Apr-20 05:30N 51°27' E 003°42'0 0.0
2018-Apr-20 05:00N 51°27' E 003°42'0 0.0
2018-Apr-20 04:31N 51°27' E 003°42'0 0.0
2018-Apr-20 03:57N 51°27' E 003°42'0 0.0
2018-Apr-20 03:30N 51°27' E 003°42'0 0.0
2018-Apr-20 03:00N 51°27' E 003°42'0 0.0
2018-Apr-20 02:27N 51°27' E 003°42'0 0.0
2018-Apr-20 02:00N 51°27' E 003°42'0 0.0
2018-Apr-20 01:31N 51°27' E 003°42'0 0.0
2018-Apr-20 01:01N 51°27' E 003°42'0 0.0
2018-Apr-20 00:30N 51°27' E 003°42'0 0.0
2018-Apr-20 00:00N 51°27' E 003°42'0 0.0
2018-Apr-19 23:30N 51°27' E 003°42'0 0.0
2018-Apr-19 23:01N 51°27' E 003°42'0 0.0
2018-Apr-19 22:30N 51°27' E 003°42'0 0.0
2018-Apr-19 22:00N 51°27' E 003°42'0 0.0
2018-Apr-19 21:30N 51°27' E 003°42'0 0.0
2018-Apr-19 20:57N 51°27' E 003°42'0 0.0
2018-Apr-19 20:30N 51°27' E 003°42'0 0.0
2018-Apr-19 20:00N 51°27' E 003°42'0 0.0
2018-Apr-19 19:24N 51°27' E 003°42'0 0.0
2018-Apr-19 19:00N 51°27' E 003°42'1 2.1
2018-Apr-19 18:30N 51°27' E 003°41'3 6.0
2018-Apr-19 18:00N 51°27' E 003°36'0 0.2
2018-Apr-19 17:25N 51°27' E 003°36'0 0.0
2018-Apr-19 16:55N 51°27' E 003°36'0 0.0
2018-Apr-19 16:28N 51°27' E 003°36'0 0.0
2018-Apr-19 15:58N 51°27' E 003°36'0 0.0
2018-Apr-19 15:28N 51°27' E 003°36'0 0.0
2018-Apr-19 14:52N 51°27' E 003°36'0 0.0
2018-Apr-19 14:25N 51°27' E 003°36'0 0.0
2018-Apr-19 13:58N 51°27' E 003°36'0 0.0
2018-Apr-19 13:25N 51°27' E 003°36'0 0.0
2018-Apr-19 12:55N 51°27' E 003°36'0 0.0
2018-Apr-19 12:22N 51°27' E 003°36'0 0.0
2018-Apr-19 11:58N 51°27' E 003°36'0 0.0
2018-Apr-19 11:25N 51°27' E 003°36'0 0.0
2018-Apr-19 10:55N 51°27' E 003°36'0 0.0
2018-Apr-19 10:25N 51°27' E 003°36'0 0.0
2018-Apr-19 09:49N 51°27' E 003°36'0 0.0
2018-Apr-19 09:19N 51°27' E 003°36'0 0.0
2018-Apr-19 08:55N 51°27' E 003°36'0 0.0
2018-Apr-19 08:25N 51°27' E 003°36'0 0.0
2018-Apr-19 07:58N 51°27' E 003°36'0 0.0
2018-Apr-19 07:28N 51°27' E 003°36'0 0.0
2018-Apr-19 06:58N 51°27' E 003°36'0 0.0
2018-Apr-19 06:28N 51°27' E 003°36'0 0.0
2018-Apr-19 05:58N 51°27' E 003°36'0 0.0
2018-Apr-19 05:25N 51°27' E 003°36'0 0.0
2018-Apr-19 04:58N 51°27' E 003°36'0 0.0
2018-Apr-19 04:28N 51°27' E 003°36'0 0.0
2018-Apr-19 03:55N 51°27' E 003°36'0 0.0
2018-Apr-19 03:28N 51°27' E 003°36'0 0.0
2018-Apr-19 02:58N 51°27' E 003°36'0 0.0
2018-Apr-19 02:28N 51°27' E 003°36'0 0.0
2018-Apr-19 01:58N 51°27' E 003°36'0 0.0
2018-Apr-19 01:13N 51°27' E 003°36'0 0.0
2018-Apr-19 00:55N 51°27' E 003°36'0 0.0
2018-Apr-19 00:28N 51°27' E 003°36'0 0.0
2018-Apr-18 23:58N 51°27' E 003°36'0 0.0
2018-Apr-18 23:28N 51°27' E 003°36'0 0.0
2018-Apr-18 22:55N 51°27' E 003°36'0 0.0
2018-Apr-18 22:28N 51°27' E 003°36'0 0.0
2018-Apr-18 21:55N 51°27' E 003°36'0 0.0
2018-Apr-18 21:28N 51°27' E 003°36'0 0.0
2018-Apr-18 20:58N 51°27' E 003°36'0 0.0
2018-Apr-18 20:28N 51°27' E 003°36'0 0.0
2018-Apr-18 19:58N 51°27' E 003°36'0 0.0
2018-Apr-18 19:25N 51°27' E 003°36'0 0.0
2018-Apr-18 18:58N 51°27' E 003°36'0 0.0
2018-Apr-18 18:28N 51°27' E 003°36'0 0.0
2018-Apr-18 17:55N 51°27' E 003°36'0 0.0
2018-Apr-18 17:25N 51°27' E 003°36'0 0.0
2018-Apr-18 16:58N 51°27' E 003°36'0 0.0
2018-Apr-18 16:28N 51°27' E 003°36'0 0.0
2018-Apr-18 15:58N 51°27' E 003°36'0 0.0
2018-Apr-18 15:28N 51°27' E 003°36'0 0.0
2018-Apr-18 14:58N 51°27' E 003°36'0 0.0
2018-Apr-18 14:28N 51°27' E 003°36'0 0.0
2018-Apr-18 13:58N 51°27' E 003°36'0 0.0
2018-Apr-18 13:28N 51°27' E 003°36'0 0.0
2018-Apr-18 12:58N 51°27' E 003°36'0 0.0
2018-Apr-18 12:28N 51°27' E 003°36'0 0.0
2018-Apr-18 11:58N 51°27' E 003°36'0 0.0
2018-Apr-18 11:28N 51°27' E 003°36'0 0.0
2018-Apr-18 10:58N 51°27' E 003°36'0 0.0
2018-Apr-18 10:28N 51°27' E 003°36'0 0.0
2018-Apr-18 09:58N 51°27' E 003°36'0 0.0
2018-Apr-18 09:28N 51°27' E 003°36'0 0.0
2018-Apr-18 08:58N 51°27' E 003°36'0 0.0
2018-Apr-18 08:28N 51°27' E 003°36'0 0.0
2018-Apr-18 07:58N 51°27' E 003°36'0 0.0
2018-Apr-18 07:28N 51°27' E 003°36'0 0.0
2018-Apr-18 06:58N 51°27' E 003°36'0 0.0
2018-Apr-18 06:25N 51°27' E 003°36'0 0.0
2018-Apr-18 05:58N 51°27' E 003°36'0 0.0
2018-Apr-18 05:28N 51°27' E 003°36'0 0.0
2018-Apr-18 04:58N 51°27' E 003°36'0 0.0
2018-Apr-18 04:28N 51°27' E 003°36'0 0.0
2018-Apr-18 03:58N 51°27' E 003°36'0 0.0
2018-Apr-18 03:28N 51°27' E 003°36'0 0.0
2018-Apr-18 02:58N 51°27' E 003°36'0 0.0
2018-Apr-18 02:28N 51°27' E 003°36'0 0.0
2018-Apr-18 01:58N 51°27' E 003°36'0 0.0
2018-Apr-18 01:28N 51°27' E 003°36'0 0.0
2018-Apr-18 01:00N 51°27' E 003°36'1 1.6
2018-Apr-18 00:30N 51°26' E 003°36'611.4
2018-Apr-18 00:00N 51°25' E 003°27'612.9
2018-Apr-17 23:30N 51°24' E 003°16'612.2
2018-Apr-17 23:00N 51°24' E 003°07'510.8
2018-Apr-17 22:30N 51°23' E 002°58'510.2
2018-Apr-17 22:00N 51°21' E 002°50'5 8.7
2018-Apr-17 21:29N 51°21' E 002°43'4 8.7
2018-Apr-17 21:00N 51°22' E 002°36'5 9.5
2018-Apr-17 20:30N 51°21' E 002°29'5 9.6
2018-Apr-17 20:00N 51°20' E 002°21'7 9.9
2018-Apr-17 19:19N 51°16' E 002°13'310.3
2018-Apr-17 18:59N 51°14' E 002°08'510.5
2018-Apr-17 18:31N 51°11' E 002°01'510.9
2018-Apr-17 18:01N 51°09' E 001°53'611.3
2018-Apr-17 17:30N 51°07' E 001°45'510.4
2018-Apr-17 17:00N 51°03' E 001°39'6411.8
2018-Apr-17 11:36N 50°23' E 000°21'112.9
2018-Apr-17 11:29N 50°22' E 000°19'613.2
2018-Apr-17 11:00N 50°21' E 000°10'713.7
2018-Apr-17 10:30N 50°19' W 000°01'714.1
2018-Apr-17 10:00N 50°17' W 000°12'714.5
2018-Apr-17 09:30N 50°15' W 000°22'714.9
2018-Apr-17 09:00N 50°13' W 000°33'714.7
2018-Apr-17 08:30N 50°11' W 000°45'714.7
2018-Apr-17 08:00N 50°09' W 000°56'714.5
2018-Apr-17 07:30N 50°07' W 001°06'714.4
2018-Apr-17 07:00N 50°05' W 001°17'713.6
2018-Apr-17 06:30N 50°03' W 001°27'612.5
2018-Apr-17 06:00N 50°02' W 001°37'611.5
2018-Apr-17 05:31N 50°00' W 001°45'510.6
2018-Apr-17 05:01N 49°59' W 001°53'5 9.7
2018-Apr-17 04:31N 49°58' W 002°01'5 8.9
2018-Apr-17 04:00N 49°56' W 002°07'4 8.3
2018-Apr-17 03:30N 49°55' W 002°14'5 7.8
2018-Apr-17 02:54N 49°54' W 002°21'3 7.6
2018-Apr-17 02:30N 49°53' W 002°25'13211.3
2018-Apr-16 14:48N 48°50' W 005°24'  

Dump ship's entire track history